sensor_id;sensor_type;location;lat;lon;timestamp;temperature;humidity
1165;DHT22;571;50.930;6.926;2023-10-09T02:46:53;16.20;99.90
1165;DHT22;571;50.930;6.926;2023-10-09T02:49:23;16.20;99.90
1165;DHT22;571;50.930;6.926;2023-10-09T02:51:50;16.20;99.90
1165;DHT22;571;50.930;6.926;2023-10-09T02:54:19;16.20;99.90
1165;DHT22;571;50.930;6.926;2023-10-09T02:56:53;16.20;99.90
1165;DHT22;571;50.930;6.926;2023-10-09T02:59:30;16.20;99.90
1165;DHT22;571;50.930;6.926;2023-10-09T03:01:58;16.30;99.90
1165;DHT22;571;50.930;6.926;2023-10-09T03:04:26;16.30;99.90
1165;DHT22;571;50.930;6.926;2023-10-09T03:06:56;16.30;99.90
1165;DHT22;571;50.930;6.926;2023-10-09T03:09:24;16.30;99.90
1165;DHT22;571;50.930;6.926;2023-10-09T03:11:53;16.30;99.90
1165;DHT22;571;50.930;6.926;2023-10-09T03:14:27;16.30;99.90
1165;DHT22;571;50.930;6.926;2023-10-09T03:16:55;16.30;99.90
1165;DHT22;571;50.930;6.926;2023-10-09T03:19:25;16.30;99.90
1165;DHT22;571;50.930;6.926;2023-10-09T03:21:53;16.30;99.90
1165;DHT22;571;50.930;6.926;2023-10-09T03:24:22;16.30;99.90
1165;DHT22;571;50.930;6.926;2023-10-09T03:26:49;16.30;99.90
1165;DHT22;571;50.930;6.926;2023-10-09T03:29:17;16.30;99.90
1165;DHT22;571;50.930;6.926;2023-10-09T03:31:45;16.30;99.90
1165;DHT22;571;50.930;6.926;2023-10-09T03:34:12;16.30;99.90
1165;DHT22;571;50.930;6.926;2023-10-09T03:36:41;16.30;99.90
1165;DHT22;571;50.930;6.926;2023-10-09T03:39:09;16.30;99.90
1165;DHT22;571;50.930;6.926;2023-10-09T03:41:50;16.30;99.90
1165;DHT22;571;50.930;6.926;2023-10-09T03:44:17;16.30;99.90
1165;DHT22;571;50.930;6.926;2023-10-09T03:46:44;16.30;99.90
1165;DHT22;571;50.930;6.926;2023-10-09T03:49:11;16.30;99.90
1165;DHT22;571;50.930;6.926;2023-10-09T03:51:40;16.30;99.90
1165;DHT22;571;50.930;6.926;2023-10-09T03:54:08;16.30;99.90
1165;DHT22;571;50.930;6.926;2023-10-09T03:56:34;16.30;99.90
1165;DHT22;571;50.930;6.926;2023-10-09T03:59:02;16.30;99.90
1165;DHT22;571;50.930;6.926;2023-10-09T04:01:30;16.30;99.90
1165;DHT22;571;50.930;6.926;2023-10-09T04:04:04;16.30;99.90
1165;DHT22;571;50.930;6.926;2023-10-09T04:06:33;16.30;99.90
1165;DHT22;571;50.930;6.926;2023-10-09T04:09:02;16.30;99.90
1165;DHT22;571;50.930;6.926;2023-10-09T04:11:54;16.30;99.90
1165;DHT22;571;50.930;6.926;2023-10-09T04:14:43;16.30;99.90
1165;DHT22;571;50.930;6.926;2023-10-09T04:17:15;16.30;99.90
1165;DHT22;571;50.930;6.926;2023-10-09T04:19:56;16.30;99.90
1165;DHT22;571;50.930;6.926;2023-10-09T04:22:37;16.30;99.90
1165;DHT22;571;50.930;6.926;2023-10-09T04:25:07;16.30;99.90
1165;DHT22;571;50.930;6.926;2023-10-09T04:27:40;16.30;99.90
1165;DHT22;571;50.930;6.926;2023-10-09T04:30:07;16.30;99.90
1165;DHT22;571;50.930;6.926;2023-10-09T04:32:40;16.30;99.90
1165;DHT22;571;50.930;6.926;2023-10-09T04:35:10;16.30;99.90
1165;DHT22;571;50.930;6.926;2023-10-09T04:37:48;16.30;99.90
1165;DHT22;571;50.930;6.926;2023-10-09T04:40:27;16.30;99.90
1165;DHT22;571;50.930;6.926;2023-10-09T04:43:17;16.30;99.90
1165;DHT22;571;50.930;6.926;2023-10-09T04:45:46;16.30;99.90
1165;DHT22;571;50.930;6.926;2023-10-09T04:48:32;16.40;99.90
1165;DHT22;571;50.930;6.926;2023-10-09T04:50:58;16.40;99.90
1165;DHT22;571;50.930;6.926;2023-10-09T04:53:47;16.40;99.90
1165;DHT22;571;50.930;6.926;2023-10-09T04:56:21;16.40;99.90
1165;DHT22;571;50.930;6.926;2023-10-09T04:58:49;16.40;99.90
1165;DHT22;571;50.930;6.926;2023-10-09T05:01:29;16.40;99.90
1165;DHT22;571;50.930;6.926;2023-10-09T05:04:07;16.40;99.90
1165;DHT22;571;50.930;6.926;2023-10-09T05:06:54;16.40;99.90
1165;DHT22;571;50.930;6.926;2023-10-09T05:09:23;16.40;99.90
1165;DHT22;571;50.930;6.926;2023-10-09T05:11:51;16.40;99.90
1165;DHT22;571;50.930;6.926;2023-10-09T05:14:35;16.40;99.90
1165;DHT22;571;50.930;6.926;2023-10-09T05:17:13;16.40;99.90
1165;DHT22;571;50.930;6.926;2023-10-09T05:19:43;16.40;99.90
1165;DHT22;571;50.930;6.926;2023-10-09T05:22:20;16.50;99.90
1165;DHT22;571;50.930;6.926;2023-10-09T05:24:56;16.50;99.90
1165;DHT22;571;50.930;6.926;2023-10-09T05:27:26;16.40;99.90
1165;DHT22;571;50.930;6.926;2023-10-09T05:30:08;16.50;99.90
1165;DHT22;571;50.930;6.926;2023-10-09T05:32:55;16.50;99.90
1165;DHT22;571;50.930;6.926;2023-10-09T05:35:24;16.50;99.90
1165;DHT22;571;50.930;6.926;2023-10-09T05:38:06;16.60;99.90
1165;DHT22;571;50.930;6.926;2023-10-09T05:40:40;16.60;99.90
1165;DHT22;571;50.930;6.926;2023-10-09T05:43:10;16.50;99.90
1165;DHT22;571;50.930;6.926;2023-10-09T05:45:56;16.60;99.90
1165;DHT22;571;50.930;6.926;2023-10-09T05:48:33;16.60;99.90
1165;DHT22;571;50.930;6.926;2023-10-09T05:51:20;16.60;99.90
1165;DHT22;571;50.930;6.926;2023-10-09T05:54:01;16.60;99.90
1165;DHT22;571;50.930;6.926;2023-10-09T05:56:45;16.60;99.90
1165;DHT22;571;50.930;6.926;2023-10-09T05:59:58;16.60;99.90
1165;DHT22;571;50.930;6.926;2023-10-09T06:02:42;16.60;99.90
1165;DHT22;571;50.930;6.926;2023-10-09T06:05:25;16.60;99.90
1165;DHT22;571;50.930;6.926;2023-10-09T06:08:07;16.60;99.90
1165;DHT22;571;50.930;6.926;2023-10-09T06:10:38;16.60;99.90
1165;DHT22;571;50.930;6.926;2023-10-09T06:13:08;16.60;99.90
1165;DHT22;571;50.930;6.926;2023-10-09T06:15:56;16.60;99.90
1165;DHT22;571;50.930;6.926;2023-10-09T06:18:41;16.70;99.90
1165;DHT22;571;50.930;6.926;2023-10-09T06:21:19;16.70;99.90
1165;DHT22;571;50.930;6.926;2023-10-09T06:24:00;16.70;99.90
1165;DHT22;571;50.930;6.926;2023-10-09T06:26:41;16.70;99.90
1165;DHT22;571;50.930;6.926;2023-10-09T06:29:17;16.70;99.90
1165;DHT22;571;50.930;6.926;2023-10-09T06:32:00;16.70;99.90
1165;DHT22;571;50.930;6.926;2023-10-09T06:34:41;16.70;99.90
1165;DHT22;571;50.930;6.926;2023-10-09T06:37:10;16.80;99.90
1165;DHT22;571;50.930;6.926;2023-10-09T06:39:43;16.80;99.90
1165;DHT22;571;50.930;6.926;2023-10-09T06:42:32;16.80;99.90
1165;DHT22;571;50.930;6.926;2023-10-09T06:45:10;16.80;99.90
1165;DHT22;571;50.930;6.926;2023-10-09T06:47:45;16.80;99.90
1165;DHT22;571;50.930;6.926;2023-10-09T06:50:21;16.80;99.90
1165;DHT22;571;50.930;6.926;2023-10-09T06:52:51;16.80;99.90
1165;DHT22;571;50.930;6.926;2023-10-09T06:55:44;16.90;99.90
1165;DHT22;571;50.930;6.926;2023-10-09T06:58:17;16.90;99.90
1165;DHT22;571;50.930;6.926;2023-10-09T07:00:51;17.00;99.90
1165;DHT22;571;50.930;6.926;2023-10-09T07:03:41;17.00;99.90
1165;DHT22;571;50.930;6.926;2023-10-09T07:06:19;17.10;99.90
1165;DHT22;571;50.930;6.926;2023-10-09T07:09:11;17.10;99.90
1165;DHT22;571;50.930;6.926;2023-10-09T07:11:47;17.10;99.90
1165;DHT22;571;50.930;6.926;2023-10-09T07:14:35;17.10;99.90
1165;DHT22;571;50.930;6.926;2023-10-09T07:17:19;17.20;99.90
1165;DHT22;571;50.930;6.926;2023-10-09T07:19:50;17.20;99.90
1165;DHT22;571;50.930;6.926;2023-10-09T07:22:36;17.30;99.90
1165;DHT22;571;50.930;6.926;2023-10-09T07:25:18;17.30;99.90
1165;DHT22;571;50.930;6.926;2023-10-09T07:27:58;17.40;99.90
1165;DHT22;571;50.930;6.926;2023-10-09T07:30:25;17.40;99.90
1165;DHT22;571;50.930;6.926;2023-10-09T07:33:05;17.50;99.90
1165;DHT22;571;50.930;6.926;2023-10-09T07:35:44;17.50;99.90
1165;DHT22;571;50.930;6.926;2023-10-09T07:38:20;17.60;99.90
1165;DHT22;571;50.930;6.926;2023-10-09T07:40:49;17.60;99.90
1165;DHT22;571;50.930;6.926;2023-10-09T07:43:21;17.70;99.90
1165;DHT22;571;50.930;6.926;2023-10-09T07:45:51;17.80;99.90
1165;DHT22;571;50.930;6.926;2023-10-09T07:48:50;17.90;99.90
1165;DHT22;571;50.930;6.926;2023-10-09T07:51:18;18.00;99.90
1165;DHT22;571;50.930;6.926;2023-10-09T07:53:49;18.00;99.90
1165;DHT22;571;50.930;6.926;2023-10-09T07:56:23;18.00;99.90
1165;DHT22;571;50.930;6.926;2023-10-09T07:58:49;18.10;99.90
1165;DHT22;571;50.930;6.926;2023-10-09T08:01:17;18.10;99.90
1165;DHT22;571;50.930;6.926;2023-10-09T08:03:50;18.20;99.90
1165;DHT22;571;50.930;6.926;2023-10-09T08:06:27;18.20;99.90
1165;DHT22;571;50.930;6.926;2023-10-09T08:09:09;18.30;99.90
1165;DHT22;571;50.930;6.926;2023-10-09T08:12:04;18.30;99.90
1165;DHT22;571;50.930;6.926;2023-10-09T08:15:02;18.30;99.90
1165;DHT22;571;50.930;6.926;2023-10-09T08:17:46;18.40;99.90
1165;DHT22;571;50.930;6.926;2023-10-09T08:20:17;18.40;99.90
1165;DHT22;571;50.930;6.926;2023-10-09T08:22:51;18.50;99.90
1165;DHT22;571;50.930;6.926;2023-10-09T08:25:18;18.50;99.90
1165;DHT22;571;50.930;6.926;2023-10-09T08:27:56;18.60;99.90
1165;DHT22;571;50.930;6.926;2023-10-09T08:30:24;18.60;99.90
1165;DHT22;571;50.930;6.926;2023-10-09T08:33:14;18.70;99.90
1165;DHT22;571;50.930;6.926;2023-10-09T08:36:00;18.70;99.90
1165;DHT22;571;50.930;6.926;2023-10-09T08:38:31;18.80;99.90
1165;DHT22;571;50.930;6.926;2023-10-09T08:41:07;18.80;99.90
1165;DHT22;571;50.930;6.926;2023-10-09T08:43:46;18.90;99.90
1165;DHT22;571;50.930;6.926;2023-10-09T08:46:17;19.00;99.90
1165;DHT22;571;50.930;6.926;2023-10-09T08:48:45;19.00;99.90
1165;DHT22;571;50.930;6.926;2023-10-09T08:51:14;19.00;99.90
1165;DHT22;571;50.930;6.926;2023-10-09T08:53:43;19.10;99.90
1165;DHT22;571;50.930;6.926;2023-10-09T08:56:11;19.10;99.90
1165;DHT22;571;50.930;6.926;2023-10-09T08:58:40;19.10;99.90
1165;DHT22;571;50.930;6.926;2023-10-09T09:01:07;19.20;99.90
1165;DHT22;571;50.930;6.926;2023-10-09T09:03:42;19.30;99.90
1165;DHT22;571;50.930;6.926;2023-10-09T09:06:10;19.30;99.90
1165;DHT22;571;50.930;6.926;2023-10-09T09:08:38;19.40;99.90
1165;DHT22;571;50.930;6.926;2023-10-09T09:11:10;19.50;99.90
1165;DHT22;571;50.930;6.926;2023-10-09T09:13:43;19.50;99.90
1165;DHT22;571;50.930;6.926;2023-10-09T09:16:16;19.60;99.90
1165;DHT22;571;50.930;6.926;2023-10-09T09:18:58;19.60;99.90
1165;DHT22;571;50.930;6.926;2023-10-09T09:21:29;19.60;99.90
1165;DHT22;571;50.930;6.926;2023-10-09T09:24:05;19.70;99.90
1165;DHT22;571;50.930;6.926;2023-10-09T09:26:42;19.70;99.90
1165;DHT22;571;50.930;6.926;2023-10-09T09:29:12;19.80;99.90
1165;DHT22;571;50.930;6.926;2023-10-09T09:31:52;19.80;99.90
1165;DHT22;571;50.930;6.926;2023-10-09T09:34:19;19.90;99.90
1165;DHT22;571;50.930;6.926;2023-10-09T09:36:52;20.00;99.90
1165;DHT22;571;50.930;6.926;2023-10-09T09:39:23;20.10;99.90
1165;DHT22;571;50.930;6.926;2023-10-09T09:41:55;20.20;99.70
1165;DHT22;571;50.930;6.926;2023-10-09T09:44:23;20.20;99.50
1165;DHT22;571;50.930;6.926;2023-10-09T09:46:56;20.30;99.20
1165;DHT22;571;50.930;6.926;2023-10-09T09:49:27;20.40;99.20
1165;DHT22;571;50.930;6.926;2023-10-09T09:51:58;20.50;98.70
1165;DHT22;571;50.930;6.926;2023-10-09T09:54:26;20.60;98.50
1165;DHT22;571;50.930;6.926;2023-10-09T09:56:59;20.60;98.60
1165;DHT22;571;50.930;6.926;2023-10-09T09:59:40;20.70;98.10
1165;DHT22;571;50.930;6.926;2023-10-09T10:02:18;20.70;98.20
1165;DHT22;571;50.930;6.926;2023-10-09T10:04:47;20.80;98.40
1165;DHT22;571;50.930;6.926;2023-10-09T10:07:18;20.90;98.30
1165;DHT22;571;50.930;6.926;2023-10-09T10:09:48;21.00;98.10
1165;DHT22;571;50.930;6.926;2023-10-09T10:12:50;21.10;97.90
1165;DHT22;571;50.930;6.926;2023-10-09T10:18:55;21.40;97.70
1165;DHT22;571;50.930;6.926;2023-10-09T10:21:33;21.50;97.40
1165;DHT22;571;50.930;6.926;2023-10-09T10:24:04;21.60;97.40
1165;DHT22;571;50.930;6.926;2023-10-09T10:26:34;21.70;97.20
1165;DHT22;571;50.930;6.926;2023-10-09T10:29:17;21.80;96.80
1165;DHT22;571;50.930;6.926;2023-10-09T10:31:53;21.80;96.40
1165;DHT22;571;50.930;6.926;2023-10-09T10:34:21;21.90;96.70
1165;DHT22;571;50.930;6.926;2023-10-09T10:36:49;22.00;96.50
1165;DHT22;571;50.930;6.926;2023-10-09T10:39:18;22.10;96.00
1165;DHT22;571;50.930;6.926;2023-10-09T10:42:06;22.10;96.60
1165;DHT22;571;50.930;6.926;2023-10-09T10:44:35;22.20;96.30
1165;DHT22;571;50.930;6.926;2023-10-09T10:47:04;22.30;96.10
1165;DHT22;571;50.930;6.926;2023-10-09T10:49:43;22.30;95.90
1165;DHT22;571;50.930;6.926;2023-10-09T10:52:20;22.40;95.70
1165;DHT22;571;50.930;6.926;2023-10-09T10:54:47;22.50;95.90
1165;DHT22;571;50.930;6.926;2023-10-09T10:57:35;22.50;96.20
1165;DHT22;571;50.930;6.926;2023-10-09T11:00:19;22.60;95.90
1165;DHT22;571;50.930;6.926;2023-10-09T11:03:04;22.60;95.50
1165;DHT22;571;50.930;6.926;2023-10-09T11:05:43;22.60;95.60
1165;DHT22;571;50.930;6.926;2023-10-09T11:08:16;22.70;95.10
1165;DHT22;571;50.930;6.926;2023-10-09T11:10:48;22.70;95.30
1165;DHT22;571;50.930;6.926;2023-10-09T11:13:24;22.70;95.40
1165;DHT22;571;50.930;6.926;2023-10-09T11:16:01;22.70;95.60
1165;DHT22;571;50.930;6.926;2023-10-09T11:18:54;22.80;96.00
1165;DHT22;571;50.930;6.926;2023-10-09T11:21:23;22.90;95.30
1165;DHT22;571;50.930;6.926;2023-10-09T11:23:57;22.90;95.20
1165;DHT22;571;50.930;6.926;2023-10-09T11:26:25;23.00;93.60
1165;DHT22;571;50.930;6.926;2023-10-09T11:29:10;23.00;93.20
1165;DHT22;571;50.930;6.926;2023-10-09T11:31:42;23.10;92.10
1165;DHT22;571;50.930;6.926;2023-10-09T11:34:23;23.10;92.20
1165;DHT22;571;50.930;6.926;2023-10-09T11:36:58;23.10;92.70
1165;DHT22;571;50.930;6.926;2023-10-09T11:39:25;23.20;92.10
1165;DHT22;571;50.930;6.926;2023-10-09T11:42:04;23.20;92.40
1165;DHT22;571;50.930;6.926;2023-10-09T11:44:39;23.30;92.60
1165;DHT22;571;50.930;6.926;2023-10-09T11:47:07;23.30;91.40
1165;DHT22;571;50.930;6.926;2023-10-09T11:49:50;23.40;90.60
1165;DHT22;571;50.930;6.926;2023-10-09T11:52:36;23.40;90.70
1165;DHT22;571;50.930;6.926;2023-10-09T11:55:04;23.40;91.00
1165;DHT22;571;50.930;6.926;2023-10-09T11:57:32;23.40;90.70
1165;DHT22;571;50.930;6.926;2023-10-09T12:00:04;23.40;90.50
1165;DHT22;571;50.930;6.926;2023-10-09T12:02:53;23.40;90.50
1165;DHT22;571;50.930;6.926;2023-10-09T12:05:19;23.50;90.40
1165;DHT22;571;50.930;6.926;2023-10-09T12:07:47;23.50;90.70
1165;DHT22;571;50.930;6.926;2023-10-09T12:10:19;23.50;91.10
1165;DHT22;571;50.930;6.926;2023-10-09T12:12:50;23.50;91.40
1165;DHT22;571;50.930;6.926;2023-10-09T12:15:19;23.60;92.00
1165;DHT22;571;50.930;6.926;2023-10-09T12:17:46;23.60;91.40
1165;DHT22;571;50.930;6.926;2023-10-09T12:20:14;23.60;91.50
1165;DHT22;571;50.930;6.926;2023-10-09T12:22:57;23.70;91.20
1165;DHT22;571;50.930;6.926;2023-10-09T12:25:24;23.70;90.60
1165;DHT22;571;50.930;6.926;2023-10-09T12:27:51;23.70;90.60
1165;DHT22;571;50.930;6.926;2023-10-09T12:30:24;23.70;90.10
1165;DHT22;571;50.930;6.926;2023-10-09T12:32:53;23.70;89.80
1165;DHT22;571;50.930;6.926;2023-10-09T12:35:20;23.70;90.10
1165;DHT22;571;50.930;6.926;2023-10-09T12:37:48;23.70;90.50
1165;DHT22;571;50.930;6.926;2023-10-09T12:40:15;23.60;90.10
1165;DHT22;571;50.930;6.926;2023-10-09T12:42:50;23.70;90.00
1165;DHT22;571;50.930;6.926;2023-10-09T12:45:17;23.80;90.50
1165;DHT22;571;50.930;6.926;2023-10-09T12:47:53;23.70;90.50
1165;DHT22;571;50.930;6.926;2023-10-09T12:50:24;23.60;89.80
1165;DHT22;571;50.930;6.926;2023-10-09T12:52:55;23.60;90.30
1165;DHT22;571;50.930;6.926;2023-10-09T12:55:22;23.50;90.40
1165;DHT22;571;50.930;6.926;2023-10-09T12:57:59;23.50;90.90
1165;DHT22;571;50.930;6.926;2023-10-09T13:00:32;23.50;90.60
1165;DHT22;571;50.930;6.926;2023-10-09T13:03:00;23.50;90.60
1165;DHT22;571;50.930;6.926;2023-10-09T13:05:28;23.50;90.90
1165;DHT22;571;50.930;6.926;2023-10-09T13:07:55;23.50;90.90
1165;DHT22;571;50.930;6.926;2023-10-09T13:10:23;23.40;91.60
1165;DHT22;571;50.930;6.926;2023-10-09T13:12:51;23.40;91.20
1165;DHT22;571;50.930;6.926;2023-10-09T13:15:21;23.40;91.20
1165;DHT22;571;50.930;6.926;2023-10-09T13:17:48;23.40;91.00
1165;DHT22;571;50.930;6.926;2023-10-09T13:20:20;23.40;91.10
1165;DHT22;571;50.930;6.926;2023-10-09T13:22:47;23.40;90.90
1165;DHT22;571;50.930;6.926;2023-10-09T13:25:14;23.30;90.80
1165;DHT22;571;50.930;6.926;2023-10-09T13:27:42;23.30;91.10
1165;DHT22;571;50.930;6.926;2023-10-09T13:30:16;23.30;91.10
1165;DHT22;571;50.930;6.926;2023-10-09T13:32:48;23.30;91.10
1165;DHT22;571;50.930;6.926;2023-10-09T13:35:16;23.30;91.20
1165;DHT22;571;50.930;6.926;2023-10-09T13:37:45;23.30;91.10
1165;DHT22;571;50.930;6.926;2023-10-09T13:40:20;23.30;91.20
1165;DHT22;571;50.930;6.926;2023-10-09T13:42:53;23.20;91.20
1165;DHT22;571;50.930;6.926;2023-10-09T13:45:25;23.30;91.20
1165;DHT22;571;50.930;6.926;2023-10-09T13:47:53;23.30;90.90
1165;DHT22;571;50.930;6.926;2023-10-09T13:50:20;23.30;91.00
1165;DHT22;571;50.930;6.926;2023-10-09T13:52:48;23.30;91.00
1165;DHT22;571;50.930;6.926;2023-10-09T13:55:19;23.30;90.80
1165;DHT22;571;50.930;6.926;2023-10-09T13:57:46;23.30;90.30
1165;DHT22;571;50.930;6.926;2023-10-09T14:00:14;23.30;90.50
1165;DHT22;571;50.930;6.926;2023-10-09T14:02:57;23.30;90.30
1165;DHT22;571;50.930;6.926;2023-10-09T14:05:27;23.20;90.30
1165;DHT22;571;50.930;6.926;2023-10-09T14:07:55;23.20;90.20
1165;DHT22;571;50.930;6.926;2023-10-09T14:10:25;23.20;90.50
1165;DHT22;571;50.930;6.926;2023-10-09T14:12:55;23.20;90.30
1165;DHT22;571;50.930;6.926;2023-10-09T14:15:22;23.20;90.40
1165;DHT22;571;50.930;6.926;2023-10-09T14:17:49;23.20;90.20
1165;DHT22;571;50.930;6.926;2023-10-09T14:20:21;23.20;90.10
1165;DHT22;571;50.930;6.926;2023-10-09T14:22:58;23.30;90.30
1165;DHT22;571;50.930;6.926;2023-10-09T14:25:32;23.20;90.10
1165;DHT22;571;50.930;6.926;2023-10-09T14:27:59;23.20;90.40
1165;DHT22;571;50.930;6.926;2023-10-09T14:30:25;23.20;90.50
1165;DHT22;571;50.930;6.926;2023-10-09T14:32:58;23.20;90.20
1165;DHT22;571;50.930;6.926;2023-10-09T14:35:27;23.20;90.30
1165;DHT22;571;50.930;6.926;2023-10-09T14:37:55;23.20;90.60
1165;DHT22;571;50.930;6.926;2023-10-09T14:40:24;23.20;90.60
1165;DHT22;571;50.930;6.926;2023-10-09T14:42:57;23.20;90.40
1165;DHT22;571;50.930;6.926;2023-10-09T14:45:24;23.20;90.70
1165;DHT22;571;50.930;6.926;2023-10-09T14:47:52;23.20;90.80
1165;DHT22;571;50.930;6.926;2023-10-09T14:50:20;23.20;91.10
1165;DHT22;571;50.930;6.926;2023-10-09T14:52:48;23.20;90.80
1165;DHT22;571;50.930;6.926;2023-10-09T14:55:16;23.30;90.60
1165;DHT22;571;50.930;6.926;2023-10-09T14:57:48;23.40;90.40
1165;DHT22;571;50.930;6.926;2023-10-09T15:00:16;23.40;90.70
1165;DHT22;571;50.930;6.926;2023-10-09T15:02:49;23.40;90.50
1165;DHT22;571;50.930;6.926;2023-10-09T15:05:16;23.40;90.40
1165;DHT22;571;50.930;6.926;2023-10-09T15:07:43;23.40;90.60
1165;DHT22;571;50.930;6.926;2023-10-09T15:10:11;23.30;90.50
1165;DHT22;571;50.930;6.926;2023-10-09T15:12:41;23.30;90.40
1165;DHT22;571;50.930;6.926;2023-10-09T15:15:10;23.20;90.50
1165;DHT22;571;50.930;6.926;2023-10-09T15:17:39;23.20;90.70
1165;DHT22;571;50.930;6.926;2023-10-09T15:20:10;23.10;90.60
1165;DHT22;571;50.930;6.926;2023-10-09T15:22:40;23.00;90.60
1165;DHT22;571;50.930;6.926;2023-10-09T15:25:07;22.90;90.90
1165;DHT22;571;50.930;6.926;2023-10-09T15:27:34;22.90;91.00
1165;DHT22;571;50.930;6.926;2023-10-09T15:30:05;22.80;91.20
1165;DHT22;571;50.930;6.926;2023-10-09T15:32:35;22.80;91.30
1165;DHT22;571;50.930;6.926;2023-10-09T15:39:41;22.80;91.70
1165;DHT22;571;50.930;6.926;2023-10-09T15:52:17;22.50;91.40
1165;DHT22;571;50.930;6.926;2023-10-09T15:55:11;22.40;91.60
1165;DHT22;571;50.930;6.926;2023-10-09T15:58:18;22.40;91.50
1165;DHT22;571;50.930;6.926;2023-10-09T16:01:13;22.30;91.70
1165;DHT22;571;50.930;6.926;2023-10-09T16:04:34;22.30;91.80
1165;DHT22;571;50.930;6.926;2023-10-09T16:07:38;22.30;91.80
1165;DHT22;571;50.930;6.926;2023-10-09T16:13:07;22.10;92.20
1165;DHT22;571;50.930;6.926;2023-10-09T16:15:43;22.00;92.20
1165;DHT22;571;50.930;6.926;2023-10-09T16:18:53;22.00;92.20
1165;DHT22;571;50.930;6.926;2023-10-09T16:21:33;22.00;92.70
1165;DHT22;571;50.930;6.926;2023-10-09T16:24:26;21.90;92.80
1165;DHT22;571;50.930;6.926;2023-10-09T16:27:13;21.90;92.90
1165;DHT22;571;50.930;6.926;2023-10-09T16:29:50;21.80;93.00
1165;DHT22;571;50.930;6.926;2023-10-09T16:32:34;21.70;93.60
1165;DHT22;571;50.930;6.926;2023-10-09T16:38:20;21.70;93.40
1165;DHT22;571;50.930;6.926;2023-10-09T16:41:16;21.60;93.70
1165;DHT22;571;50.930;6.926;2023-10-09T16:43:54;21.50;93.60
1165;DHT22;571;50.930;6.926;2023-10-09T16:46:25;21.50;93.50
1165;DHT22;571;50.930;6.926;2023-10-09T16:48:54;21.50;93.70
1165;DHT22;571;50.930;6.926;2023-10-09T16:51:36;21.50;93.80
1165;DHT22;571;50.930;6.926;2023-10-09T16:54:10;21.50;94.00
1165;DHT22;571;50.930;6.926;2023-10-09T16:59:56;21.30;94.00
1165;DHT22;571;50.930;6.926;2023-10-09T17:02:43;21.40;94.20
1165;DHT22;571;50.930;6.926;2023-10-09T17:05:24;21.20;94.20
1165;DHT22;571;50.930;6.926;2023-10-09T17:08:47;21.20;94.50
1165;DHT22;571;50.930;6.926;2023-10-09T17:14:55;21.10;94.60
1165;DHT22;571;50.930;6.926;2023-10-09T17:17:36;21.10;94.70
1165;DHT22;571;50.930;6.926;2023-10-09T17:23:28;21.00;94.80
1165;DHT22;571;50.930;6.926;2023-10-09T17:26:26;21.00;94.90
1165;DHT22;571;50.930;6.926;2023-10-09T17:29:12;20.90;95.00
1165;DHT22;571;50.930;6.926;2023-10-09T17:32:09;20.90;95.10
1165;DHT22;571;50.930;6.926;2023-10-09T17:34:46;20.80;95.20
1165;DHT22;571;50.930;6.926;2023-10-09T17:37:39;20.80;95.30
1165;DHT22;571;50.930;6.926;2023-10-09T17:40:42;20.80;95.50
1165;DHT22;571;50.930;6.926;2023-10-09T17:43:24;20.70;95.70
1165;DHT22;571;50.930;6.926;2023-10-09T17:46:19;20.70;95.70
1165;DHT22;571;50.930;6.926;2023-10-09T17:48:57;20.70;95.90
1165;DHT22;571;50.930;6.926;2023-10-09T17:51:47;20.60;95.90
1165;DHT22;571;50.930;6.926;2023-10-09T17:54:25;20.60;96.00
1165;DHT22;571;50.930;6.926;2023-10-09T17:57:36;20.50;96.10
1165;DHT22;571;50.930;6.926;2023-10-09T18:00:30;20.50;96.30
1165;DHT22;571;50.930;6.926;2023-10-09T18:03:18;20.50;96.30
1165;DHT22;571;50.930;6.926;2023-10-09T18:06:19;20.30;96.40
1165;DHT22;571;50.930;6.926;2023-10-09T18:12:20;20.30;96.60
1165;DHT22;571;50.930;6.926;2023-10-09T18:15:21;20.30;96.70
1165;DHT22;571;50.930;6.926;2023-10-09T18:17:52;20.30;96.90
1165;DHT22;571;50.930;6.926;2023-10-09T18:20:49;20.20;96.90
1165;DHT22;571;50.930;6.926;2023-10-09T18:23:47;20.10;96.90
1165;DHT22;571;50.930;6.926;2023-10-09T18:26:24;20.10;97.10
1165;DHT22;571;50.930;6.926;2023-10-09T18:29:17;20.00;97.10
1165;DHT22;571;50.930;6.926;2023-10-09T18:35:21;20.00;97.30
1165;DHT22;571;50.930;6.926;2023-10-09T18:38:12;19.90;97.40
1165;DHT22;571;50.930;6.926;2023-10-09T18:47:01;19.70;97.50
1165;DHT22;571;50.930;6.926;2023-10-09T18:50:01;19.70;97.70
1165;DHT22;571;50.930;6.926;2023-10-09T18:52:50;19.60;97.80
1165;DHT22;571;50.930;6.926;2023-10-09T19:02:19;19.50;97.90
1165;DHT22;571;50.930;6.926;2023-10-09T19:05:42;19.40;97.90
1165;DHT22;571;50.930;6.926;2023-10-09T19:08:57;19.40;98.00
1165;DHT22;571;50.930;6.926;2023-10-09T19:11:51;19.30;98.00
1165;DHT22;571;50.930;6.926;2023-10-09T19:14:44;19.30;98.10
1165;DHT22;571;50.930;6.926;2023-10-09T19:17:19;19.20;98.00
1165;DHT22;571;50.930;6.926;2023-10-09T19:20:21;19.20;98.00
1165;DHT22;571;50.930;6.926;2023-10-09T19:23:21;19.20;98.00
1165;DHT22;571;50.930;6.926;2023-10-09T19:25:54;19.10;97.90
1165;DHT22;571;50.930;6.926;2023-10-09T19:28:43;19.10;97.90
1165;DHT22;571;50.930;6.926;2023-10-09T19:31:24;19.10;97.90
1165;DHT22;571;50.930;6.926;2023-10-09T19:34:06;19.10;97.90
1165;DHT22;571;50.930;6.926;2023-10-09T19:36:47;19.10;97.90
1165;DHT22;571;50.930;6.926;2023-10-09T19:39:49;19.00;98.00
1165;DHT22;571;50.930;6.926;2023-10-09T19:42:25;19.00;98.00
1165;DHT22;571;50.930;6.926;2023-10-09T19:45:17;19.00;98.10
1165;DHT22;571;50.930;6.926;2023-10-09T19:48:17;18.90;98.10
1165;DHT22;571;50.930;6.926;2023-10-09T19:50:59;18.90;98.20
1165;DHT22;571;50.930;6.926;2023-10-09T19:53:45;18.90;98.20
1165;DHT22;571;50.930;6.926;2023-10-09T19:56:43;18.90;98.20
1165;DHT22;571;50.930;6.926;2023-10-09T19:59:23;18.90;98.20
1165;DHT22;571;50.930;6.926;2023-10-09T20:02:02;18.80;98.20
1165;DHT22;571;50.930;6.926;2023-10-09T20:04:44;18.80;98.20
1165;DHT22;571;50.930;6.926;2023-10-09T20:07:54;18.80;98.30
1165;DHT22;571;50.930;6.926;2023-10-09T20:10:44;18.70;98.20
1165;DHT22;571;50.930;6.926;2023-10-09T20:13:38;18.80;98.40
1165;DHT22;571;50.930;6.926;2023-10-09T20:19:12;18.70;98.40
1165;DHT22;571;50.930;6.926;2023-10-09T20:21:50;18.60;98.40
1165;DHT22;571;50.930;6.926;2023-10-09T20:24:33;18.60;98.50
1165;DHT22;571;50.930;6.926;2023-10-09T20:27:21;18.60;98.50
1165;DHT22;571;50.930;6.926;2023-10-09T20:33:15;18.50;98.50
1165;DHT22;571;50.930;6.926;2023-10-09T20:35:50;18.50;98.60
1165;DHT22;571;50.930;6.926;2023-10-09T20:38:40;18.50;98.60
1165;DHT22;571;50.930;6.926;2023-10-09T20:41:12;18.40;98.60
1165;DHT22;571;50.930;6.926;2023-10-09T20:47:05;18.40;98.70
1165;DHT22;571;50.930;6.926;2023-10-09T20:49:44;18.40;98.80
1165;DHT22;571;50.930;6.926;2023-10-09T20:52:13;18.40;98.80
1165;DHT22;571;50.930;6.926;2023-10-09T20:55:20;18.40;98.90
1165;DHT22;571;50.930;6.926;2023-10-09T21:03:49;18.30;99.10
1165;DHT22;571;50.930;6.926;2023-10-09T21:06:20;18.30;99.20
1165;DHT22;571;50.930;6.926;2023-10-09T21:09:01;18.30;99.30
1165;DHT22;571;50.930;6.926;2023-10-09T21:11:43;18.30;99.40
1165;DHT22;571;50.930;6.926;2023-10-09T21:14:27;18.20;99.40
1165;DHT22;571;50.930;6.926;2023-10-09T21:17:22;18.20;99.40